Terminal Aerodrome Forecast
Issued by NWS

Home | Current Version | Previous Version | Text Only | Print | Product List | Glossary On
Versions: 1 2 3 4 5 6 7 8 9 10 11 12 13 14 15 16 17 18 19 20 21 22 23
778
FTUS41 KCAR 301318 AAA
TAFHUL
TAF AMD
KHUL 301318Z 3013/3112 19009KT 6SM -SHRA OVC007
     FM301800 19009KT P6SM OVC025
     FM302000 19010KT P6SM VCSH BKN040
     FM310200 21009KT P6SM BKN070
     FM311000 24005KT P6SM SCT030=

USA.gov is the U.S. government's official web portal to all federal, state and local government web resources and services.